Ms Nordnorge — 3YGW — position and weather

sailwx.info

Track history (hours):
 
Tides and Currents Weather Stations Pressure Air Temp Water Temp Dewpoint Dewpoint Depression Visibility Wind Speed Wind Dir Waves Ship Positions

Ms Nordnorge

Last reported at 2020-Sep-28 10:56 UTC. Time now 2020-Sep-28 11:26 UTC.
Position N 62°28' E 006°09'.

Length 123 m; draft 5.1 m.

MMSI: 259371000.

Date/timePositionNaut miles runAvg speedWind from/ knotsBaromVisibWave heightAir tempDewpointWater temp
2020-Sep-28 10:56N 62°28' E 006°09'0 0.0
2020-Sep-28 10:29N 62°28' E 006°09'0 0.0
2020-Sep-28 08:20N 62°28' E 006°09'0 0.0
2020-Sep-28 07:29N 62°28' E 006°09'0 0.0
2020-Sep-28 02:56N 62°28' E 006°09'0 0.0
2020-Sep-28 01:17N 62°28' E 006°09'0 0.0
2020-Sep-28 00:56N 62°28' E 006°09'0 0.0
2020-Sep-27 21:55N 62°28' E 006°09'0 0.0
2020-Sep-27 19:37N 62°28' E 006°09'0 0.0
2020-Sep-27 18:49N 62°28' E 006°09'0 0.0
2020-Sep-27 16:37N 62°28' E 006°09'0 0.0
2020-Sep-27 13:46N 62°28' E 006°09'0 0.0
2020-Sep-27 12:49N 62°28' E 006°09'0 0.0
2020-Sep-27 09:52N 62°28' E 006°09'0 0.0
2020-Sep-26 22:55N 62°28' E 006°09'0 0.0
2020-Sep-26 21:43N 62°28' E 006°09'0 0.0
2020-Sep-26 14:54N 62°28' E 006°09'0 0.0
2020-Sep-26 11:00N 62°28' E 006°09'0 0.0
2020-Sep-26 09:27N 62°28' E 006°09'0 0.0
2020-Sep-26 08:00N 62°28' E 006°09'0 0.0
2020-Sep-26 06:33N 62°28' E 006°09'0 0.0
2020-Sep-26 06:12N 62°28' E 006°09'0 0.0
2020-Sep-26 00:06N 62°28' E 006°09'0 0.0
2020-Sep-25 23:21N 62°28' E 006°09'0 0.0
2020-Sep-25 20:09N 62°28' E 006°09'0 0.0
2020-Sep-25 19:24N 62°28' E 006°09'0 0.0
2020-Sep-25 14:03N 62°28' E 006°09'0 0.0
2020-Sep-25 14:00N 62°28' E 006°09'0 0.0
2020-Sep-25 13:09N 62°28' E 006°09'0 0.0
2020-Sep-25 08:26N 62°28' E 006°09'0 0.0
2020-Sep-25 07:20N 62°28' E 006°09'0 0.0
2020-Sep-25 06:56N 62°28' E 006°09'0 0.0
2020-Sep-25 03:38N 62°28' E 006°09'0 0.0
2020-Sep-25 00:17N 62°28' E 006°09'0 0.0
2020-Sep-24 16:59N 62°28' E 006°09'0 0.0
2020-Sep-24 15:59N 62°28' E 006°09'0 0.0
2020-Sep-24 15:26N 62°28' E 006°09'0 0.0
2020-Sep-24 13:59N 62°28' E 006°09'0 0.0
2020-Sep-24 07:29N 62°28' E 006°09'0 0.0
2020-Sep-24 06:26N 62°28' E 006°09'0 0.0
2020-Sep-24 05:29N 62°28' E 006°09'0 0.0
2020-Sep-24 02:59N 62°28' E 006°09'0 0.0
2020-Sep-24 02:28N 62°28' E 006°09'0 0.0
2020-Sep-24 01:58N 62°28' E 006°09'0 0.0
2020-Sep-23 21:28N 62°28' E 006°09'0 0.0
2020-Sep-23 19:55N 62°28' E 006°09'0 0.0
2020-Sep-23 19:22N 62°28' E 006°09'0 0.0
2020-Sep-23 18:58N 62°28' E 006°09'0 0.0
2020-Sep-23 14:55N 62°28' E 006°09'0 0.0
2020-Sep-23 13:58N 62°28' E 006°09'0 0.0
2020-Sep-23 11:58N 62°28' E 006°09'0 0.0
2020-Sep-23 10:58N 62°28' E 006°09'0 0.0
2020-Sep-23 10:28N 62°28' E 006°09'0 0.0
2020-Sep-23 01:58N 62°28' E 006°09'0 0.0
2020-Sep-22 22:58N 62°28' E 006°09'0 0.0
2020-Sep-22 16:30N 62°28' E 006°09'0 0.0
2020-Sep-22 16:00N 62°28' E 006°09'0 0.1
2020-Sep-22 15:30N 62°28' E 006°09'0 0.0
2020-Sep-22 12:00N 62°28' E 006°09'0 0.0
2020-Sep-22 10:57N 62°28' E 006°09'0 0.0
2020-Sep-22 09:57N 62°28' E 006°09'0 0.0
2020-Sep-22 09:30N 62°28' E 006°09'0 0.0
2020-Sep-22 08:00N 62°28' E 006°09'0 0.0
2020-Sep-22 07:30N 62°28' E 006°09'0 0.0
2020-Sep-22 07:00N 62°28' E 006°09'0 0.0
2020-Sep-22 05:00N 62°28' E 006°09'0 0.0
2020-Sep-21 21:06N 62°28' E 006°09'0 0.0
2020-Sep-21 20:30N 62°28' E 006°09'0 0.0
2020-Sep-21 17:30N 62°28' E 006°09'0 0.0
2020-Sep-21 15:57N 62°28' E 006°09'0 0.0
2020-Sep-21 14:00N 62°28' E 006°09'0 0.0
2020-Sep-21 10:30N 62°28' E 006°09'0 0.0
2020-Sep-21 08:30N 62°28' E 006°09'0 0.0
2020-Sep-21 07:30N 62°28' E 006°09'0 0.0
2020-Sep-21 05:30N 62°28' E 006°09'17 4.2
2020-Sep-21 01:30N 62°42' E 006°29'10 9.9
2020-Sep-21 00:30N 62°51' E 006°40'9 9.5
2020-Sep-20 23:30N 62°59' E 006°52'33 8.3
2020-Sep-20 19:30N 63°14' E 007°57'5 9.1
2020-Sep-20 19:00N 63°16' E 008°06'9 9.2
2020-Sep-20 18:00N 63°21' E 008°22'5 9.2
2020-Sep-20 17:30N 63°24' E 008°30'5 9.5
2020-Sep-20 17:01N 63°26' E 008°40'5 9.9
2020-Sep-20 16:30N 63°27' E 008°51'510.3
2020-Sep-20 16:00N 63°29' E 009°02'14 9.5
2020-Sep-20 14:30N 63°42' E 009°16'2211.1
2020-Sep-20 12:30N 64°03' E 009°33'611.9
2020-Sep-20 12:00N 64°08' E 009°39'611.0
2020-Sep-20 11:29N 64°13' E 009°45'1010.2
2020-Sep-20 10:30N 64°21' E 009°60'2110.3
2020-Sep-20 08:30N 64°35' E 010°34'1510.1
2020-Sep-20 07:00N 64°45' E 011°00'1111.5
2020-Sep-20 06:00N 64°53' E 011°19'6110.2
2020-Sep-20 00:00N 65°49' E 012°21'3911.0
2020-Sep-19 20:30N 66°25' E 012°59'1610.8
2020-Sep-19 19:00N 66°41' E 013°08'1711.3
2020-Sep-19 17:30N 66°55' E 013°29'1110.7
2020-Sep-19 16:28N 67°03' E 013°50'2811.3
2020-Sep-19 14:00N 67°27' E 014°24'3110.5
2020-Sep-19 11:00N 67°58' E 014°45'1111.3
2020-Sep-19 10:00N 68°05' E 015°08'3011.8
2020-Sep-19 07:26N 68°27' E 016°05'512.7
2020-Sep-19 07:00N 68°32' E 016°12'2311.4
2020-Sep-19 05:00N 68°49' E 016°52'612.5
2020-Sep-19 04:30N 68°55' E 017°01'2412.2
2020-Sep-19 02:31N 69°10' E 017°54'1110.5
2020-Sep-19 01:31N 69°20' E 018°02'2110.7
2020-Sep-18 23:30N 69°34' E 018°48'1312.9
2020-Sep-18 22:30N 69°46' E 019°05'3012.1
2020-Sep-18 20:00N 69°60' E 020°23'1212.5
2020-Sep-18 19:00N 70°05' E 020°56'1312.6
2020-Sep-18 18:00N 70°16' E 021°16'3411.2
2020-Sep-18 14:57N 70°30' E 022°49'1610.9
2020-Sep-18 13:30N 70°39' E 023°28'  
Track history (hours):
 
Tides and Currents Weather Stations Pressure Air Temp Water Temp Dewpoint Dewpoint Depression Visibility Wind Speed Wind Dir Waves Ship Positions

Ms Nordnorge

Last reported at 2020-Sep-28 10:56 UTC. Time now 2020-Sep-28 11:26 UTC.
Position N 62°28' E 006°09'.

Length 123 m; draft 5.1 m.

MMSI: 259371000.

Date/timePositionNaut miles runAvg speedWind from/ knotsBaromVisibWave heightAir tempDewpointWater temp
2020-Sep-28 10:56N 62°28' E 006°09'0 0.0
2020-Sep-28 10:29N 62°28' E 006°09'0 0.0
2020-Sep-28 08:20N 62°28' E 006°09'0 0.0
2020-Sep-28 07:29N 62°28' E 006°09'0 0.0
2020-Sep-28 02:56N 62°28' E 006°09'0 0.0
2020-Sep-28 01:17N 62°28' E 006°09'0 0.0
2020-Sep-28 00:56N 62°28' E 006°09'0 0.0
2020-Sep-27 21:55N 62°28' E 006°09'0 0.0
2020-Sep-27 19:37N 62°28' E 006°09'0 0.0
2020-Sep-27 18:49N 62°28' E 006°09'0 0.0
2020-Sep-27 16:37N 62°28' E 006°09'0 0.0
2020-Sep-27 13:46N 62°28' E 006°09'0 0.0
2020-Sep-27 12:49N 62°28' E 006°09'0 0.0
2020-Sep-27 09:52N 62°28' E 006°09'0 0.0
2020-Sep-26 22:55N 62°28' E 006°09'0 0.0
2020-Sep-26 21:43N 62°28' E 006°09'0 0.0
2020-Sep-26 14:54N 62°28' E 006°09'0 0.0
2020-Sep-26 11:00N 62°28' E 006°09'0 0.0
2020-Sep-26 09:27N 62°28' E 006°09'0 0.0
2020-Sep-26 08:00N 62°28' E 006°09'0 0.0
2020-Sep-26 06:33N 62°28' E 006°09'0 0.0
2020-Sep-26 06:12N 62°28' E 006°09'0 0.0
2020-Sep-26 00:06N 62°28' E 006°09'0 0.0
2020-Sep-25 23:21N 62°28' E 006°09'0 0.0
2020-Sep-25 20:09N 62°28' E 006°09'0 0.0
2020-Sep-25 19:24N 62°28' E 006°09'0 0.0
2020-Sep-25 14:03N 62°28' E 006°09'0 0.0
2020-Sep-25 14:00N 62°28' E 006°09'0 0.0
2020-Sep-25 13:09N 62°28' E 006°09'0 0.0
2020-Sep-25 08:26N 62°28' E 006°09'0 0.0
2020-Sep-25 07:20N 62°28' E 006°09'0 0.0
2020-Sep-25 06:56N 62°28' E 006°09'0 0.0
2020-Sep-25 03:38N 62°28' E 006°09'0 0.0
2020-Sep-25 00:17N 62°28' E 006°09'0 0.0
2020-Sep-24 16:59N 62°28' E 006°09'0 0.0
2020-Sep-24 15:59N 62°28' E 006°09'0 0.0
2020-Sep-24 15:26N 62°28' E 006°09'0 0.0
2020-Sep-24 13:59N 62°28' E 006°09'0 0.0
2020-Sep-24 07:29N 62°28' E 006°09'0 0.0
2020-Sep-24 06:26N 62°28' E 006°09'0 0.0
2020-Sep-24 05:29N 62°28' E 006°09'0 0.0
2020-Sep-24 02:59N 62°28' E 006°09'0 0.0
2020-Sep-24 02:28N 62°28' E 006°09'0 0.0
2020-Sep-24 01:58N 62°28' E 006°09'0 0.0
2020-Sep-23 21:28N 62°28' E 006°09'0 0.0
2020-Sep-23 19:55N 62°28' E 006°09'0 0.0
2020-Sep-23 19:22N 62°28' E 006°09'0 0.0
2020-Sep-23 18:58N 62°28' E 006°09'0 0.0
2020-Sep-23 14:55N 62°28' E 006°09'0 0.0
2020-Sep-23 13:58N 62°28' E 006°09'0 0.0
2020-Sep-23 11:58N 62°28' E 006°09'0 0.0
2020-Sep-23 10:58N 62°28' E 006°09'0 0.0
2020-Sep-23 10:28N 62°28' E 006°09'0 0.0
2020-Sep-23 01:58N 62°28' E 006°09'0 0.0
2020-Sep-22 22:58N 62°28' E 006°09'0 0.0
2020-Sep-22 16:30N 62°28' E 006°09'0 0.0
2020-Sep-22 16:00N 62°28' E 006°09'0 0.1
2020-Sep-22 15:30N 62°28' E 006°09'0 0.0
2020-Sep-22 12:00N 62°28' E 006°09'0 0.0
2020-Sep-22 10:57N 62°28' E 006°09'0 0.0
2020-Sep-22 09:57N 62°28' E 006°09'0 0.0
2020-Sep-22 09:30N 62°28' E 006°09'0 0.0
2020-Sep-22 08:00N 62°28' E 006°09'0 0.0
2020-Sep-22 07:30N 62°28' E 006°09'0 0.0
2020-Sep-22 07:00N 62°28' E 006°09'0 0.0
2020-Sep-22 05:00N 62°28' E 006°09'0 0.0
2020-Sep-21 21:06N 62°28' E 006°09'0 0.0
2020-Sep-21 20:30N 62°28' E 006°09'0 0.0
2020-Sep-21 17:30N 62°28' E 006°09'0 0.0
2020-Sep-21 15:57N 62°28' E 006°09'0 0.0
2020-Sep-21 14:00N 62°28' E 006°09'0 0.0
2020-Sep-21 10:30N 62°28' E 006°09'0 0.0
2020-Sep-21 08:30N 62°28' E 006°09'0 0.0
2020-Sep-21 07:30N 62°28' E 006°09'0 0.0
2020-Sep-21 05:30N 62°28' E 006°09'17 4.2
2020-Sep-21 01:30N 62°42' E 006°29'10 9.9
2020-Sep-21 00:30N 62°51' E 006°40'9 9.5
2020-Sep-20 23:30N 62°59' E 006°52'33 8.3
2020-Sep-20 19:30N 63°14' E 007°57'5 9.1
2020-Sep-20 19:00N 63°16' E 008°06'9 9.2
2020-Sep-20 18:00N 63°21' E 008°22'5 9.2
2020-Sep-20 17:30N 63°24' E 008°30'5 9.5
2020-Sep-20 17:01N 63°26' E 008°40'5 9.9
2020-Sep-20 16:30N 63°27' E 008°51'510.3
2020-Sep-20 16:00N 63°29' E 009°02'14 9.5
2020-Sep-20 14:30N 63°42' E 009°16'2211.1
2020-Sep-20 12:30N 64°03' E 009°33'611.9
2020-Sep-20 12:00N 64°08' E 009°39'611.0
2020-Sep-20 11:29N 64°13' E 009°45'1010.2
2020-Sep-20 10:30N 64°21' E 009°60'2110.3
2020-Sep-20 08:30N 64°35' E 010°34'1510.1
2020-Sep-20 07:00N 64°45' E 011°00'1111.5
2020-Sep-20 06:00N 64°53' E 011°19'6110.2
2020-Sep-20 00:00N 65°49' E 012°21'3911.0
2020-Sep-19 20:30N 66°25' E 012°59'1610.8
2020-Sep-19 19:00N 66°41' E 013°08'1711.3
2020-Sep-19 17:30N 66°55' E 013°29'1110.7
2020-Sep-19 16:28N 67°03' E 013°50'2811.3
2020-Sep-19 14:00N 67°27' E 014°24'3110.5
2020-Sep-19 11:00N 67°58' E 014°45'1111.3
2020-Sep-19 10:00N 68°05' E 015°08'3011.8
2020-Sep-19 07:26N 68°27' E 016°05'512.7
2020-Sep-19 07:00N 68°32' E 016°12'2311.4
2020-Sep-19 05:00N 68°49' E 016°52'612.5
2020-Sep-19 04:30N 68°55' E 017°01'2412.2
2020-Sep-19 02:31N 69°10' E 017°54'1110.5
2020-Sep-19 01:31N 69°20' E 018°02'2110.7
2020-Sep-18 23:30N 69°34' E 018°48'1312.9
2020-Sep-18 22:30N 69°46' E 019°05'3012.1
2020-Sep-18 20:00N 69°60' E 020°23'1212.5
2020-Sep-18 19:00N 70°05' E 020°56'1312.6
2020-Sep-18 18:00N 70°16' E 021°16'3411.2
2020-Sep-18 14:57N 70°30' E 022°49'1610.9
2020-Sep-18 13:30N 70°39' E 023°28'  

Dump ship's entire track history